Time;durP1;ratioP1;P1;durP2;ratioP2;P2;SDS_P1;SDS_P2;PMS_P1;PMS_P2;Temp;Humidity;BMP_temperature;BMP_pressure;BME280_temperature;BME280_humidity;BME280_pressure;Samples;Min_cycle;Max_cycle;Signal;HPM_P1;HPM_P2
2022/04/13 00:00:27;;;;;;;;;1.00;1.00;;;;;;;;5140500;27;47077;-75
2022/04/13 00:02:53;;;;;;;;;1.00;1.00;;;;;;;;5141859;27;45170;-75
2022/04/13 00:05:18;;;;;;;;;2.00;2.00;;;;;;;;5140593;27;45232;-75
2022/04/13 00:07:43;;;;;;;;;2.00;2.00;;;;;;;;5142218;27;45194;-75
2022/04/13 00:10:09;;;;;;;;;2.67;2.67;;;;;;;;5140464;27;46561;-75
2022/04/13 00:12:34;;;;;;;;;1.67;1.67;;;;;;;;5141867;27;45463;-76
2022/04/13 00:14:59;;;;;;;;;3.00;3.00;;;;;;;;5136685;27;45237;-75
2022/04/13 00:17:24;;;;;;;;;1.00;1.00;;;;;;;;5119984;27;45220;-75
2022/04/13 00:19:50;;;;;;;;;1.67;1.67;;;;;;;;5120943;27;45227;-76
2022/04/13 00:22:15;;;;;;;;;0.67;0.67;;;;;;;;5120965;27;45338;-76
2022/04/13 00:24:40;;;;;;;;;2.33;2.33;;;;;;;;5120942;27;45212;-76
2022/04/13 00:27:05;;;;;;;;;3.00;3.00;;;;;;;;5120930;27;45134;-76
2022/04/13 00:29:31;;;;;;;;;2.50;2.50;;;;;;;;5119699;27;46314;-75
2022/04/13 00:31:57;;;;;;;;;3.00;3.00;;;;;;;;5119219;27;48202;-74
2022/04/13 00:34:22;;;;;;;;;3.00;1.67;;;;;;;;5119569;27;45698;-76
2022/04/13 00:36:47;;;;;;;;;2.67;2.67;;;;;;;;5120846;27;45353;-75
2022/04/13 00:39:12;;;;;;;;;1.33;1.33;;;;;;;;5120809;27;45277;-75
2022/04/13 00:41:37;;;;;;;;;2.00;1.33;;;;;;;;5120464;27;46512;-76
2022/04/13 00:44:07;;;;;;;;;1.00;1.00;;;;;;;;5120780;27;45240;-75
2022/04/13 00:46:33;;;;;;;;;3.00;1.67;;;;;;;;5120813;27;45231;-75
2022/04/13 00:48:59;;;;;;;;;3.00;1.00;;;;;;;;5118982;27;46917;-75
2022/04/13 00:51:25;;;;;;;;;2.00;2.00;;;;;;;;5120555;27;45308;-75
2022/04/13 00:53:51;;;;;;;;;3.00;2.67;;;;;;;;5120675;27;45226;-76
2022/04/13 00:56:21;;;;;;;;;2.67;1.67;;;;;;;;5120438;27;45484;-76
2022/04/13 00:58:47;;;;;;;;;2.67;2.33;;;;;;;;5120575;27;45288;-76
2022/04/13 01:01:12;;;;;;;;;1.33;1.33;;;;;;;;5119039;27;48353;-75
2022/04/13 01:03:38;;;;;;;;;2.00;2.00;;;;;;;;5119057;27;45230;-76
2022/04/13 01:06:04;;;;;;;;;1.33;0.00;;;;;;;;5120649;27;45248;-75
2022/04/13 01:08:29;;;;;;;;;3.00;3.00;;;;;;;;5120365;27;45416;-75
2022/04/13 01:10:56;;;;;;;;;2.00;2.00;;;;;;;;5118857;27;46081;-74
2022/04/13 01:13:21;;;;;;;;;3.00;3.00;;;;;;;;5119045;27;45880;-75
2022/04/13 01:15:47;;;;;;;;;3.00;2.67;;;;;;;;5129583;27;45264;-75
2022/04/13 01:18:13;;;;;;;;;2.33;2.33;;;;;;;;5141965;27;45356;-75
2022/04/13 01:20:47;;;;;;;;;2.33;2.33;;;;;;;;5144447;27;46419;-76
2022/04/13 01:23:13;;;;;;;;;2.67;2.67;;;;;;;;5144471;27;45296;-75
2022/04/13 01:25:38;;;;;;;;;2.67;2.67;;;;;;;;5143166;27;45441;-75
2022/04/13 01:28:03;;;;;;;;;1.33;1.33;;;;;;;;5144566;27;45433;-76
2022/04/13 01:30:28;;;;;;;;;2.00;2.00;;;;;;;;5143048;27;47301;-75
2022/04/13 01:32:54;;;;;;;;;4.00;4.00;;;;;;;;5142910;27;45295;-75
2022/04/13 01:35:22;;;;;;;;;3.00;3.00;;;;;;;;5144551;27;45287;-76
2022/04/13 01:37:48;;;;;;;;;2.00;2.00;;;;;;;;5142760;27;45921;-75
2022/04/13 01:40:14;;;;;;;;;2.00;2.00;;;;;;;;5142643;27;48062;-75
2022/04/13 01:42:39;;;;;;;;;3.00;3.00;;;;;;;;5144433;27;45202;-76
2022/04/13 01:45:05;;;;;;;;;2.67;2.67;;;;;;;;5143106;27;45553;-75
2022/04/13 01:47:30;;;;;;;;;3.67;3.00;;;;;;;;5144197;27;45230;-75
2022/04/13 01:49:56;;;;;;;;;3.00;3.00;;;;;;;;5144071;27;46356;-76
2022/04/13 01:52:21;;;;;;;;;3.00;3.00;;;;;;;;5142579;27;45425;-76
2022/04/13 01:54:46;;;;;;;;;4.00;4.00;;;;;;;;5144246;27;45400;-76
2022/04/13 01:57:12;;;;;;;;;3.00;3.00;;;;;;;;5143961;27;45385;-76
2022/04/13 01:59:37;;;;;;;;;5.00;4.00;;;;;;;;5143911;27;45384;-76
2022/04/13 02:02:04;;;;;;;;;3.33;3.00;;;;;;;;5143979;27;45331;-76
2022/04/13 02:04:30;;;;;;;;;3.00;3.00;;;;;;;;5142841;27;45357;-75
2022/04/13 02:06:55;;;;;;;;;5.00;4.00;;;;;;;;5143689;27;45285;-76
2022/04/13 02:09:21;;;;;;;;;2.67;2.67;;;;;;;;5142580;27;47129;-75
2022/04/13 02:11:46;;;;;;;;;3.00;3.00;;;;;;;;5142261;27;45674;-76
2022/04/13 02:14:11;;;;;;;;;4.00;4.00;;;;;;;;5143949;27;45403;-75
2022/04/13 02:16:37;;;;;;;;;2.67;2.33;;;;;;;;5124479;27;46983;-76
2022/04/13 02:19:02;;;;;;;;;3.33;3.33;;;;;;;;5121588;27;47001;-75
2022/04/13 02:21:28;;;;;;;;;3.00;3.00;;;;;;;;5122805;27;45205;-76
2022/04/13 02:23:53;;;;;;;;;4.00;3.00;;;;;;;;5123054;27;45281;-76
2022/04/13 02:26:19;;;;;;;;;4.00;4.00;;;;;;;;5122590;27;45283;-76
2022/04/13 02:28:44;;;;;;;;;2.67;2.67;;;;;;;;5122678;27;46148;-76
2022/04/13 02:31:10;;;;;;;;;3.00;3.00;;;;;;;;5121665;27;45196;-76
2022/04/13 02:33:35;;;;;;;;;4.33;4.33;;;;;;;;5121404;27;45245;-77
2022/04/13 02:36:00;;;;;;;;;3.00;3.00;;;;;;;;5122760;27;45260;-76
2022/04/13 02:38:25;;;;;;;;;4.00;4.00;;;;;;;;5121080;27;47302;-77
2022/04/13 02:40:51;;;;;;;;;4.00;4.00;;;;;;;;5121013;27;45760;-77
2022/04/13 02:43:16;;;;;;;;;4.33;4.33;;;;;;;;5122767;27;45281;-76
2022/04/13 02:45:42;;;;;;;;;7.33;5.00;;;;;;;;5122512;27;45353;-77
2022/04/13 02:48:08;;;;;;;;;5.00;5.00;;;;;;;;5122288;27;45427;-77
2022/04/13 02:50:33;;;;;;;;;4.00;4.00;;;;;;;;5121065;27;45275;-77
2022/04/13 02:52:58;;;;;;;;;5.00;4.00;;;;;;;;5121078;27;45303;-77
2022/04/13 02:55:23;;;;;;;;;4.67;3.67;;;;;;;;5122258;27;45620;-77
2022/04/13 02:57:48;;;;;;;;;4.67;4.00;;;;;;;;5122258;27;45296;-77
2022/04/13 03:00:14;;;;;;;;;4.00;4.00;;;;;;;;5122193;27;45301;-77
2022/04/13 03:02:40;;;;;;;;;5.00;5.00;;;;;;;;5122357;27;45285;-77
2022/04/13 03:05:06;;;;;;;;;5.33;5.00;;;;;;;;5121023;27;46905;-77
2022/04/13 03:07:32;;;;;;;;;6.33;5.67;;;;;;;;5121921;27;47422;-78
2022/04/13 03:09:58;;;;;;;;;6.67;5.00;;;;;;;;5120572;27;45615;-78
2022/04/13 03:12:23;;;;;;;;;6.00;5.00;;;;;;;;5122072;27;45197;-78
2022/04/13 03:14:48;;;;;;;;;5.33;4.00;;;;;;;;5124081;27;45283;-78
2022/04/13 03:17:13;;;;;;;;;4.00;4.00;;;;;;;;5142941;27;46650;-79
2022/04/13 03:19:39;;;;;;;;;5.33;5.33;;;;;;;;5142660;27;45218;-78
2022/04/13 03:22:04;;;;;;;;;7.00;4.00;;;;;;;;5142779;27;45229;-76
2022/04/13 03:24:29;;;;;;;;;5.33;5.33;;;;;;;;5142667;27;45189;-78
2022/04/13 03:26:55;;;;;;;;;4.33;4.33;;;;;;;;5142361;27;46419;-78
2022/04/13 03:29:20;;;;;;;;;6.33;5.33;;;;;;;;5141179;27;45279;-78
2022/04/13 03:31:46;;;;;;;;;5.33;5.33;;;;;;;;5141285;27;45426;-78
2022/04/13 03:34:11;;;;;;;;;4.67;4.67;;;;;;;;5142496;27;45290;-78
2022/04/13 03:36:39;;;;;;;;;6.00;6.00;;;;;;;;5142300;27;45862;-78
2022/04/13 03:39:05;;;;;;;;;5.33;4.33;;;;;;;;5141119;27;45341;-78
2022/04/13 03:41:30;;;;;;;;;7.67;5.67;;;;;;;;5140547;27;45384;-75
2022/04/13 03:43:56;;;;;;;;;5.33;4.67;;;;;;;;5142010;27;45600;-79
2022/04/13 03:46:21;;;;;;;;;6.00;6.00;;;;;;;;5142455;27;45406;-78
2022/04/13 03:48:46;;;;;;;;;7.33;7.00;;;;;;;;5141941;27;45351;-78
2022/04/13 03:51:11;;;;;;;;;5.00;5.00;;;;;;;;5142417;27;45202;-77
2022/04/13 03:53:36;;;;;;;;;7.00;7.00;;;;;;;;5142119;27;45250;-77
2022/04/13 03:56:01;;;;;;;;;9.00;8.00;;;;;;;;5140432;27;47139;-74
2022/04/13 03:58:27;;;;;;;;;8.00;8.00;;;;;;;;5142166;27;45228;-75
2022/04/13 04:00:53;;;;;;;;;11.00;8.67;;;;;;;;5140900;27;45237;-75
2022/04/13 04:03:18;;;;;;;;;9.00;7.33;;;;;;;;5141954;27;45190;-77
2022/04/13 04:05:43;;;;;;;;;9.33;7.67;;;;;;;;5142068;27;45366;-74
2022/04/13 04:08:08;;;;;;;;;7.33;6.00;;;;;;;;5142058;27;45251;-77
2022/04/13 04:10:33;;;;;;;;;8.00;7.67;;;;;;;;5141901;27;45175;-77
2022/04/13 04:12:59;;;;;;;;;8.33;8.33;;;;;;;;5142012;27;45195;-78
2022/04/13 04:15:24;;;;;;;;;9.67;9.67;;;;;;;;5132872;27;47371;-78
2022/04/13 04:17:49;;;;;;;;;8.67;8.67;;;;;;;;5119898;27;45298;-77
2022/04/13 04:20:15;;;;;;;;;7.67;7.67;;;;;;;;5121186;27;45193;-77
2022/04/13 04:22:40;;;;;;;;;7.67;7.00;;;;;;;;5119720;27;46010;-76
2022/04/13 04:25:07;;;;;;;;;9.33;8.00;;;;;;;;5120838;27;45170;-77
2022/04/13 04:27:33;;;;;;;;;9.67;9.67;;;;;;;;5119644;27;45267;-76
2022/04/13 04:29:58;;;;;;;;;7.67;7.67;;;;;;;;5119896;27;45362;-77
2022/04/13 04:32:23;;;;;;;;;8.67;8.33;;;;;;;;5119411;27;46450;-78
2022/04/13 04:34:48;;;;;;;;;7.33;6.00;;;;;;;;5120863;27;46029;-77
2022/04/13 04:37:13;;;;;;;;;7.67;7.67;;;;;;;;5120861;27;45341;-77
2022/04/13 04:39:39;;;;;;;;;7.00;6.67;;;;;;;;5120921;27;45569;-77
2022/04/13 04:42:05;;;;;;;;;10.67;10.67;;;;;;;;5120516;27;45337;-76
2022/04/13 04:44:30;;;;;;;;;10.00;10.00;;;;;;;;5120727;27;45864;-78
2022/04/13 04:46:55;;;;;;;;;7.00;6.33;;;;;;;;5120605;27;45353;-77
2022/04/13 04:49:20;;;;;;;;;11.33;10.33;;;;;;;;5120943;27;45431;-74
2022/04/13 04:51:46;;;;;;;;;11.00;9.67;;;;;;;;5114589;27;45467;-77
2022/04/13 04:54:11;;;;;;;;;10.33;10.33;;;;;;;;5109906;27;48641;-76
2022/04/13 04:56:36;;;;;;;;;8.67;8.33;;;;;;;;5103507;27;45212;-77
2022/04/13 04:59:01;;;;;;;;;10.33;9.33;;;;;;;;5104623;27;45229;-77
2022/04/13 05:01:26;;;;;;;;;9.00;8.67;;;;;;;;5143624;27;47330;-76
2022/04/13 05:03:52;;;;;;;;;10.67;9.67;;;;;;;;5141747;27;48409;-79
2022/04/13 05:06:21;;;;;;;;;9.67;9.00;;;;;;;;5144906;27;45133;-79
2022/04/13 05:08:47;;;;;;;;;10.00;9.00;;;;;;;;5144971;27;45310;-79
2022/04/13 05:11:13;;;;;;;;;9.33;8.33;;;;;;;;5144457;27;45492;-78
2022/04/13 05:13:38;;;;;;;;;10.67;10.00;;;;;;;;5144661;27;46188;-77
2022/04/13 05:16:04;;;;;;;;;9.67;9.67;;;;;;;;5143205;27;45364;-77
2022/04/13 05:18:30;;;;;;;;;12.67;12.67;;;;;;;;5144847;27;45383;-78
2022/04/13 05:20:55;;;;;;;;;9.33;9.33;;;;;;;;5144519;27;45537;-79
2022/04/13 05:23:21;;;;;;;;;10.67;9.00;;;;;;;;5144364;27;45374;-78
2022/04/13 05:25:46;;;;;;;;;9.67;9.67;;;;;;;;5144467;27;45325;-79
2022/04/13 05:28:12;;;;;;;;;10.00;9.67;;;;;;;;5143240;27;45300;-78
2022/04/13 05:30:37;;;;;;;;;13.00;10.33;;;;;;;;5143034;27;47094;-78
2022/04/13 05:33:02;;;;;;;;;12.00;12.00;;;;;;;;5144282;27;46381;-77
2022/04/13 05:35:28;;;;;;;;;12.67;11.00;;;;;;;;5143076;27;45756;-79
2022/04/13 05:37:56;;;;;;;;;10.00;9.00;;;;;;;;5133506;27;45437;-80
2022/04/13 05:40:23;;;;;;;;;9.33;7.67;;;;;;;;5122416;27;45411;-78
2022/04/13 05:42:49;;;;;;;;;11.33;10.00;;;;;;;;5123239;27;46149;-78
2022/04/13 05:45:15;;;;;;;;;11.33;11.33;;;;;;;;5123199;27;45347;-78
2022/04/13 05:47:42;;;;;;;;;9.00;9.00;;;;;;;;5123120;27;45546;-78
2022/04/13 05:50:07;;;;;;;;;9.00;9.00;;;;;;;;5121987;27;47680;-78
2022/04/13 05:52:33;;;;;;;;;8.33;8.33;;;;;;;;5122979;27;45490;-78
2022/04/13 05:54:58;;;;;;;;;9.67;9.67;;;;;;;;5121722;27;45285;-78
2022/04/13 05:57:23;;;;;;;;;11.00;9.67;;;;;;;;5123475;27;45306;-78
2022/04/13 05:59:49;;;;;;;;;12.00;11.00;;;;;;;;5123090;27;45289;-78
2022/04/13 06:02:14;;;;;;;;;12.00;10.00;;;;;;;;5123151;27;46536;-78
2022/04/13 06:04:39;;;;;;;;;11.00;11.00;;;;;;;;5122938;27;45295;-78
2022/04/13 06:07:04;;;;;;;;;11.33;11.00;;;;;;;;5121898;27;45427;-75
2022/04/13 06:09:30;;;;;;;;;10.00;10.00;;;;;;;;5121620;27;46460;-76
2022/04/13 06:11:55;;;;;;;;;14.33;12.00;;;;;;;;5121321;27;48643;-75
2022/04/13 06:14:20;;;;;;;;;13.33;11.33;;;;;;;;5120741;27;45431;-76
2022/04/13 06:16:45;;;;;;;;;11.33;11.33;;;;;;;;5142019;27;45248;-76
2022/04/13 06:19:11;;;;;;;;;12.00;12.00;;;;;;;;5143676;27;45515;-75
2022/04/13 06:21:36;;;;;;;;;13.67;13.00;;;;;;;;5143391;27;45517;-76
2022/04/13 06:24:02;;;;;;;;;14.33;14.00;;;;;;;;5143641;27;45270;-76
2022/04/13 06:26:27;;;;;;;;;11.00;10.33;;;;;;;;5141978;27;45339;-76
2022/04/13 06:28:52;;;;;;;;;12.00;12.00;;;;;;;;5143229;27;45380;-75
2022/04/13 06:31:21;;;;;;;;;12.00;12.00;;;;;;;;5143226;27;45399;-75
2022/04/13 06:33:46;;;;;;;;;16.00;13.33;;;;;;;;5143448;27;45237;-76
2022/04/13 06:36:11;;;;;;;;;15.00;14.67;;;;;;;;5141888;27;45295;-78
2022/04/13 06:38:40;;;;;;;;;12.00;12.00;;;;;;;;5143273;27;45415;-77
2022/04/13 06:41:06;;;;;;;;;16.67;14.67;;;;;;;;5142767;27;46135;-76
2022/04/13 06:43:31;;;;;;;;;14.00;14.00;;;;;;;;5143157;27;45283;-76
2022/04/13 06:45:56;;;;;;;;;16.33;16.00;;;;;;;;5137123;27;45746;-76
2022/04/13 06:48:21;;;;;;;;;19.00;19.00;;;;;;;;5119430;27;45940;-76
2022/04/13 06:50:46;;;;;;;;;20.67;19.33;;;;;;;;5122342;27;45503;-77
2022/04/13 06:53:14;;;;;;;;;20.67;19.00;;;;;;;;5120895;27;45283;-77
2022/04/13 06:55:40;;;;;;;;;24.00;22.00;;;;;;;;5122159;27;45270;-76
2022/04/13 06:58:06;;;;;;;;;21.00;21.00;;;;;;;;5121954;27;45390;-77
2022/04/13 07:00:31;;;;;;;;;19.67;18.00;;;;;;;;5121447;27;46319;-76
2022/04/13 07:02:57;;;;;;;;;22.00;20.00;;;;;;;;5122222;27;45209;-77
2022/04/13 07:05:23;;;;;;;;;16.00;16.00;;;;;;;;5122237;27;45493;-77
2022/04/13 07:07:48;;;;;;;;;15.00;14.00;;;;;;;;5121948;27;45175;-77
2022/04/13 07:10:13;;;;;;;;;15.00;14.33;;;;;;;;5120269;27;47013;-76
2022/04/13 07:12:39;;;;;;;;;15.67;15.33;;;;;;;;5122024;27;45312;-75
2022/04/13 07:15:05;;;;;;;;;16.67;16.67;;;;;;;;5121331;27;45506;-76
2022/04/13 07:17:30;;;;;;;;;20.67;19.67;;;;;;;;5124815;27;45919;-75
2022/04/13 07:19:55;;;;;;;;;18.00;18.00;;;;;;;;5142536;27;45236;-76
2022/04/13 07:22:21;;;;;;;;;13.33;13.33;;;;;;;;5142592;27;45139;-76
2022/04/13 07:24:46;;;;;;;;;17.33;17.33;;;;;;;;5142579;27;45227;-75
2022/04/13 07:27:11;;;;;;;;;19.33;17.33;;;;;;;;5142711;27;45197;-76
2022/04/13 07:29:36;;;;;;;;;19.67;19.67;;;;;;;;5142599;27;46092;-76
2022/04/13 07:32:02;;;;;;;;;20.00;18.00;;;;;;;;5142338;27;45328;-79
2022/04/13 07:34:27;;;;;;;;;23.00;22.00;;;;;;;;5140410;27;45431;-78
2022/04/13 07:36:52;;;;;;;;;19.00;18.00;;;;;;;;5141648;27;45325;-80
2022/04/13 07:39:17;;;;;;;;;21.33;21.33;;;;;;;;5142318;27;45405;-79
2022/04/13 07:41:43;;;;;;;;;20.67;19.33;;;;;;;;5140812;27;45912;-79
2022/04/13 07:44:09;;;;;;;;;23.00;22.00;;;;;;;;5142006;27;45334;-79
2022/04/13 07:46:34;;;;;;;;;22.00;21.67;;;;;;;;5139728;27;45378;-79
2022/04/13 07:48:59;;;;;;;;;21.67;20.33;;;;;;;;5139500;27;45486;-79
2022/04/13 07:51:24;;;;;;;;;19.67;19.67;;;;;;;;5138632;27;45981;-80
2022/04/13 07:53:50;;;;;;;;;18.33;17.00;;;;;;;;5138797;27;45378;-77
2022/04/13 07:56:15;;;;;;;;;26.00;24.33;;;;;;;;5139923;27;45480;-77
2022/04/13 07:58:40;;;;;;;;;23.00;22.00;;;;;;;;5139181;27;48157;-78
2022/04/13 08:01:05;;;;;;;;;19.00;17.67;;;;;;;;5140526;27;45666;-78
2022/04/13 08:03:31;;;;;;;;;20.00;20.00;;;;;;;;5142218;27;45289;-78
2022/04/13 08:05:56;;;;;;;;;19.67;17.67;;;;;;;;5142102;27;45486;-78
2022/04/13 08:08:22;;;;;;;;;19.67;18.67;;;;;;;;5141763;27;46160;-78
2022/04/13 08:10:47;;;;;;;;;22.00;22.00;;;;;;;;5141701;27;45236;-79
2022/04/13 08:13:12;;;;;;;;;18.67;18.67;;;;;;;;5140628;27;45267;-78
2022/04/13 08:15:37;;;;;;;;;23.00;21.00;;;;;;;;5141704;27;45481;-78
2022/04/13 08:18:03;;;;;;;;;18.67;18.67;;;;;;;;5141205;27;45298;-78
2022/04/13 08:20:28;;;;;;;;;19.00;19.00;;;;;;;;5114913;27;45419;-77
2022/04/13 08:22:53;;;;;;;;;19.33;18.33;;;;;;;;5116262;27;45358;-77
2022/04/13 08:25:18;;;;;;;;;23.67;23.00;;;;;;;;5119596;27;45238;-78
2022/04/13 08:27:44;;;;;;;;;18.67;18.67;;;;;;;;5117207;27;46962;-77
2022/04/13 08:30:09;;;;;;;;;18.00;18.00;;;;;;;;5122601;27;45855;-78
2022/04/13 08:32:36;;;;;;;;;18.33;18.33;;;;;;;;5121900;27;45241;-79
2022/04/13 08:35:05;;;;;;;;;19.00;17.33;;;;;;;;5121700;27;45350;-78
2022/04/13 08:37:30;;;;;;;;;18.00;16.67;;;;;;;;5121322;27;46299;-79
2022/04/13 08:40:01;;;;;;;;;19.33;18.67;;;;;;;;5121647;27;45378;-79
2022/04/13 08:42:34;;;;;;;;;21.33;18.00;;;;;;;;5121571;27;45636;-79
2022/04/13 08:45:03;;;;;;;;;19.33;18.67;;;;;;;;5121666;27;45279;-78
2022/04/13 08:47:30;;;;;;;;;19.00;19.00;;;;;;;;5121220;27;46622;-78
2022/04/13 08:49:56;;;;;;;;;19.67;19.00;;;;;;;;5121544;27;45346;-78
2022/04/13 08:52:29;;;;;;;;;20.33;19.00;;;;;;;;5121551;27;45350;-79
2022/04/13 08:55:07;;;;;;;;;18.67;16.33;;;;;;;;5121321;27;45469;-79
2022/04/13 08:57:41;;;;;;;;;14.67;13.33;;;;;;;;5121034;27;46835;-78
2022/04/13 09:00:09;;;;;;;;;17.00;17.00;;;;;;;;5119576;27;45593;-78
2022/04/13 09:02:53;;;;;;;;;14.00;13.67;;;;;;;;5121605;27;45495;-78
2022/04/13 09:05:27;;;;;;;;;21.33;18.67;;;;;;;;5119341;27;46947;-79
2022/04/13 09:08:08;;;;;;;;;18.67;17.00;;;;;;;;5122557;27;45510;-79
2022/04/13 09:10:35;;;;;;;;;20.00;19.00;;;;;;;;5120812;27;45848;-79
2022/04/13 09:13:01;;;;;;;;;15.67;13.00;;;;;;;;5118926;27;45344;-79
2022/04/13 09:15:26;;;;;;;;;15.67;15.33;;;;;;;;5119850;27;45496;-80
2022/04/13 09:17:52;;;;;;;;;16.33;16.33;;;;;;;;5121326;27;47265;-79
2022/04/13 09:20:17;;;;;;;;;17.33;17.33;;;;;;;;5122171;27;45360;-79
2022/04/13 09:22:43;;;;;;;;;22.00;22.00;;;;;;;;5120923;27;45272;-79
2022/04/13 09:25:08;;;;;;;;;21.33;20.33;;;;;;;;5122691;27;45299;-79
2022/04/13 09:27:35;;;;;;;;;19.67;19.67;;;;;;;;5122372;27;45772;-79
2022/04/13 09:30:01;;;;;;;;;18.00;17.00;;;;;;;;5122546;27;45269;-79
2022/04/13 09:32:26;;;;;;;;;17.67;17.67;;;;;;;;5122385;27;45202;-79
2022/04/13 09:34:51;;;;;;;;;21.00;19.33;;;;;;;;5120899;27;45999;-79
2022/04/13 09:37:18;;;;;;;;;16.00;16.00;;;;;;;;5120592;27;47539;-79
2022/04/13 09:39:44;;;;;;;;;17.00;17.00;;;;;;;;5122153;27;45419;-79
2022/04/13 09:42:12;;;;;;;;;20.67;18.33;;;;;;;;5121329;27;45356;-79
2022/04/13 09:44:40;;;;;;;;;17.33;16.67;;;;;;;;5121970;27;45565;-78
2022/04/13 09:47:06;;;;;;;;;17.00;16.00;;;;;;;;5121821;27;45495;-79
2022/04/13 09:49:31;;;;;;;;;16.67;16.00;;;;;;;;5122757;27;45234;-78
2022/04/13 09:51:56;;;;;;;;;16.67;16.67;;;;;;;;5122946;27;45204;-78
2022/04/13 09:54:25;;;;;;;;;17.67;17.00;;;;;;;;5122404;27;45205;-78
2022/04/13 09:56:50;;;;;;;;;20.00;20.00;;;;;;;;5120926;27;47475;-79
2022/04/13 09:59:28;;;;;;;;;12.00;11.67;;;;;;;;5122315;27;45666;-79
2022/04/13 10:01:54;;;;;;;;;16.00;16.00;;;;;;;;5122895;27;45241;-79
2022/04/13 10:04:26;;;;;;;;;15.33;15.33;;;;;;;;5121862;27;45466;-79
2022/04/13 10:06:52;;;;;;;;;13.67;12.67;;;;;;;;5120746;27;48371;-80
2022/04/13 10:09:19;;;;;;;;;13.67;11.67;;;;;;;;5122284;27;45249;-79
2022/04/13 10:12:03;;;;;;;;;13.00;13.00;;;;;;;;5122109;27;45498;-79
2022/04/13 10:14:29;;;;;;;;;13.00;13.00;;;;;;;;5110422;27;46515;-79
2022/04/13 10:16:57;;;;;;;;;9.67;8.00;;;;;;;;5140521;27;47477;-80
2022/04/13 10:19:23;;;;;;;;;9.67;9.67;;;;;;;;5142612;27;45413;-79
2022/04/13 10:21:52;;;;;;;;;10.33;10.00;;;;;;;;5141207;27;45374;-79
2022/04/13 10:24:40;;;;;;;;;10.67;9.00;;;;;;;;5141527;27;45249;-78
2022/04/13 10:27:11;;;;;;;;;11.00;11.00;;;;;;;;5124010;27;47224;-78
2022/04/13 10:29:37;;;;;;;;;12.00;12.00;;;;;;;;5128225;27;45507;-79
2022/04/13 10:32:08;;;;;;;;;10.33;10.33;;;;;;;;5120193;27;45370;-78
2022/04/13 10:34:35;;;;;;;;;9.00;8.33;;;;;;;;5099969;27;45813;-76
2022/04/13 10:37:00;;;;;;;;;11.67;10.00;;;;;;;;5101476;27;45400;-77
2022/04/13 10:39:26;;;;;;;;;10.00;10.00;;;;;;;;5101962;27;45251;-77
2022/04/13 10:41:52;;;;;;;;;9.33;9.33;;;;;;;;5083808;27;45451;-77
2022/04/13 10:44:29;;;;;;;;;10.67;10.67;;;;;;;;5102300;27;46367;-77
2022/04/13 10:46:57;;;;;;;;;13.00;10.67;;;;;;;;5101733;27;45467;-78
2022/04/13 10:49:25;;;;;;;;;12.33;12.33;;;;;;;;5103711;27;45942;-79
2022/04/13 10:51:53;;;;;;;;;12.67;11.67;;;;;;;;5121452;27;45364;-77
2022/04/13 10:54:21;;;;;;;;;14.67;12.33;;;;;;;;5122415;27;45207;-78
2022/04/13 10:56:50;;;;;;;;;11.00;10.67;;;;;;;;5122040;27;46400;-79
2022/04/13 10:59:21;;;;;;;;;13.00;11.67;;;;;;;;5122225;27;45267;-78
2022/04/13 11:01:59;;;;;;;;;8.33;8.33;;;;;;;;5122343;27;45253;-79
2022/04/13 11:04:27;;;;;;;;;8.67;8.67;;;;;;;;5122409;27;45308;-78
2022/04/13 11:06:53;;;;;;;;;8.67;8.67;;;;;;;;5122047;27;45349;-79
2022/04/13 11:09:32;;;;;;;;;8.67;8.67;;;;;;;;5122136;27;45332;-78
2022/04/13 11:11:59;;;;;;;;;7.33;7.33;;;;;;;;5122319;27;45371;-79
2022/04/13 11:14:24;;;;;;;;;9.00;9.00;;;;;;;;5120709;27;46503;-78
2022/04/13 11:17:05;;;;;;;;;8.00;7.33;;;;;;;;5134106;27;45562;-77
2022/04/13 11:19:30;;;;;;;;;10.00;10.00;;;;;;;;5118317;27;45675;-77
2022/04/13 11:21:58;;;;;;;;;10.00;8.67;;;;;;;;5122361;27;45184;-78
2022/04/13 11:24:42;;;;;;;;;9.00;9.00;;;;;;;;5121168;27;45574;-78
2022/04/13 11:27:09;;;;;;;;;9.67;9.67;;;;;;;;5119239;27;47493;-78
2022/04/13 11:30:04;;;;;;;;;9.00;8.33;;;;;;;;5119855;27;45330;-79
2022/04/13 11:32:34;;;;;;;;;18.33;15.33;;;;;;;;5106074;27;45755;-79
2022/04/13 11:35:02;;;;;;;;;14.00;14.00;;;;;;;;5121040;27;45212;-79
2022/04/13 11:37:34;;;;;;;;;17.67;16.67;;;;;;;;5120027;27;48083;-79
2022/04/13 11:40:06;;;;;;;;;8.00;8.00;;;;;;;;5121088;27;45529;-78
2022/04/13 11:42:38;;;;;;;;;12.33;12.33;;;;;;;;5120377;27;45456;-77
2022/04/13 11:45:16;;;;;;;;;18.67;17.33;;;;;;;;5119121;27;45350;-79
2022/04/13 11:47:51;;;;;;;;;11.00;10.67;;;;;;;;5100736;27;45973;-78
2022/04/13 11:50:19;;;;;;;;;8.00;8.00;;;;;;;;5100625;27;45348;-79
2022/04/13 11:52:59;;;;;;;;;10.00;9.00;;;;;;;;5100802;27;45273;-79
2022/04/13 11:55:27;;;;;;;;;11.00;9.67;;;;;;;;5098862;27;45998;-78
2022/04/13 11:58:08;;;;;;;;;11.67;11.67;;;;;;;;5098422;27;47473;-79
2022/04/13 12:00:36;;;;;;;;;10.00;10.00;;;;;;;;5100594;27;45324;-79
2022/04/13 12:03:02;;;;;;;;;9.67;9.67;;;;;;;;5100627;27;45253;-80
2022/04/13 12:05:27;;;;;;;;;12.33;12.33;;;;;;;;5099200;27;46900;-80
2022/04/13 12:07:53;;;;;;;;;10.33;9.67;;;;;;;;5099209;27;45462;-79
2022/04/13 12:10:18;;;;;;;;;12.33;8.67;;;;;;;;5097728;27;45424;-80
2022/04/13 12:12:53;;;;;;;;;10.00;9.33;;;;;;;;5099783;27;45274;-79
2022/04/13 12:15:19;;;;;;;;;10.00;10.00;;;;;;;;5113406;27;45370;-80
2022/04/13 12:17:44;;;;;;;;;11.00;10.33;;;;;;;;5141433;27;46039;-79
2022/04/13 12:20:26;;;;;;;;;8.67;8.00;;;;;;;;5141938;27;45895;-79
2022/04/13 12:22:51;;;;;;;;;10.33;9.00;;;;;;;;5142256;27;45266;-80
2022/04/13 12:25:17;;;;;;;;;8.67;8.00;;;;;;;;5142511;27;45226;-79
2022/04/13 12:28:01;;;;;;;;;9.33;9.00;;;;;;;;5140987;27;47268;-79
2022/04/13 12:30:26;;;;;;;;;8.67;8.67;;;;;;;;5143126;27;45406;-78
2022/04/13 12:32:51;;;;;;;;;10.00;10.00;;;;;;;;5141662;27;45351;-79
2022/04/13 12:35:16;;;;;;;;;7.67;7.67;;;;;;;;5142171;27;45496;-78
2022/04/13 12:37:49;;;;;;;;;10.33;10.33;;;;;;;;5141566;27;45328;-79
2022/04/13 12:40:32;;;;;;;;;10.67;10.67;;;;;;;;5141443;27;45395;-79
2022/04/13 12:42:57;;;;;;;;;14.00;13.33;;;;;;;;5142063;27;45325;-79
2022/04/13 12:45:29;;;;;;;;;14.67;12.33;;;;;;;;5142476;27;45284;-78
2022/04/13 12:47:54;;;;;;;;;11.00;10.00;;;;;;;;5141412;27;46130;-78
2022/04/13 12:50:19;;;;;;;;;15.00;13.00;;;;;;;;5141336;27;45276;-78
2022/04/13 12:52:55;;;;;;;;;15.00;13.00;;;;;;;;5141525;27;45269;-79
2022/04/13 12:55:20;;;;;;;;;14.33;13.00;;;;;;;;5141308;27;45281;-77
2022/04/13 12:57:45;;;;;;;;;9.67;9.00;;;;;;;;5140149;27;47180;-78
2022/04/13 13:00:11;;;;;;;;;11.00;11.00;;;;;;;;5141303;27;45268;-77
2022/04/13 13:02:37;;;;;;;;;7.67;7.67;;;;;;;;5141201;27;45324;-77
2022/04/13 13:05:04;;;;;;;;;9.00;9.00;;;;;;;;5140752;27;45390;-78
2022/04/13 13:07:33;;;;;;;;;10.00;10.00;;;;;;;;5140882;27;46890;-77
2022/04/13 13:09:58;;;;;;;;;9.00;7.33;;;;;;;;5139591;27;46030;-77
2022/04/13 13:12:25;;;;;;;;;8.00;8.00;;;;;;;;5141262;27;45271;-77
2022/04/13 13:14:52;;;;;;;;;8.00;8.00;;;;;;;;5140419;27;45244;-78
2022/04/13 13:17:21;;;;;;;;;9.67;9.00;;;;;;;;5123707;27;45386;-77
2022/04/13 13:19:47;;;;;;;;;9.67;9.00;;;;;;;;5123833;27;45335;-77
2022/04/13 13:22:12;;;;;;;;;9.00;7.67;;;;;;;;5123694;27;45213;-77
2022/04/13 13:24:47;;;;;;;;;11.00;11.00;;;;;;;;5123690;27;45208;-77
2022/04/13 13:27:14;;;;;;;;;9.00;8.33;;;;;;;;5123647;27;45262;-77
2022/04/13 13:29:46;;;;;;;;;9.67;9.67;;;;;;;;5123694;27;45277;-77
2022/04/13 13:32:12;;;;;;;;;10.67;10.33;;;;;;;;5123728;27;45335;-76
2022/04/13 13:34:38;;;;;;;;;13.33;11.00;;;;;;;;5123535;27;45253;-76
2022/04/13 13:37:03;;;;;;;;;13.00;10.00;;;;;;;;5123285;27;46454;-76
2022/04/13 13:39:28;;;;;;;;;10.33;10.33;;;;;;;;5122889;27;45236;-76
2022/04/13 13:42:09;;;;;;;;;9.33;9.33;;;;;;;;5123620;27;45253;-76
2022/04/13 13:44:34;;;;;;;;;13.00;11.00;;;;;;;;5123451;27;45537;-76
2022/04/13 13:46:59;;;;;;;;;11.33;11.33;;;;;;;;5123158;27;45536;-75
2022/04/13 13:49:25;;;;;;;;;9.67;9.67;;;;;;;;5104887;27;45318;-75
2022/04/13 13:51:51;;;;;;;;;9.00;9.00;;;;;;;;5123454;27;45316;-76
2022/04/13 13:54:17;;;;;;;;;9.00;9.00;;;;;;;;5121808;27;45897;-76
2022/04/13 13:56:42;;;;;;;;;10.33;10.33;;;;;;;;5123032;27;45284;-76
2022/04/13 13:59:07;;;;;;;;;8.00;8.00;;;;;;;;5122023;27;45290;-77
2022/04/13 14:01:32;;;;;;;;;8.67;8.67;;;;;;;;5123308;27;45193;-77
2022/04/13 14:03:58;;;;;;;;;16.67;13.33;;;;;;;;5123130;27;45249;-76
2022/04/13 14:06:23;;;;;;;;;12.00;10.67;;;;;;;;5122909;27;45340;-76
2022/04/13 14:08:50;;;;;;;;;13.67;12.00;;;;;;;;5123148;27;45276;-77
2022/04/13 14:11:16;;;;;;;;;10.00;10.00;;;;;;;;5123119;27;45227;-76
2022/04/13 14:13:41;;;;;;;;;11.67;11.67;;;;;;;;5122927;27;45358;-75
2022/04/13 14:16:06;;;;;;;;;11.00;10.67;;;;;;;;5136143;27;45327;-75
2022/04/13 14:18:31;;;;;;;;;12.67;12.67;;;;;;;;5142305;27;45147;-75
2022/04/13 14:20:57;;;;;;;;;14.67;13.67;;;;;;;;5143714;27;45129;-75
2022/04/13 14:23:22;;;;;;;;;14.00;12.33;;;;;;;;5143466;27;45293;-76
2022/04/13 14:25:47;;;;;;;;;11.33;10.67;;;;;;;;5141842;27;47440;-75
2022/04/13 14:28:12;;;;;;;;;13.00;13.00;;;;;;;;5143490;27;45331;-75